Terminal Aerodrome Forecast
Issued by NWS Shreveport, LA

Home | Current Version | Previous Version | Text Only | Print | Product List | Glossary On
Versions: 1 2 3 4 5 6 7 8 9 10 11 12 13 14 15 16 17 18
000
FTUS44 KSHV 221700
TAFTYR
TAF
KTYR 221735Z 2218/2318 22014G24KT P6SM BKN026
     FM222100 22012KT P6SM BKN040
     FM230000 31007KT P6SM SCT050 BKN250
     FM230500 01006KT P6SM OVC080
      TEMPO 2307/2311 5SM -RA BR OVC050
     FM231100 01008KT 6SM -RA BR BKN014 OVC050
      TEMPO 2311/2315 3SM RA BR=

USA.gov is the U.S. government's official web portal to all federal, state and local government web resources and services.